sensor_id;sensor_type;location;lat;lon;timestamp;P1;durP1;ratioP1;P2;durP2;ratioP2
48241;SDS011;34041;51.812;4.622;2023-05-21T00:00:36;6.27;;;2.50;;
48241;SDS011;34041;51.812;4.622;2023-05-21T00:03:36;4.97;;;1.73;;
48241;SDS011;34041;51.812;4.622;2023-05-21T00:06:40;3.00;;;2.00;;
48241;SDS011;34041;51.812;4.622;2023-05-21T00:09:40;3.85;;;2.03;;
48241;SDS011;34041;51.812;4.622;2023-05-21T00:12:41;3.57;;;2.57;;
48241;SDS011;34041;51.812;4.622;2023-05-21T00:15:41;4.23;;;2.67;;
48241;SDS011;34041;51.812;4.622;2023-05-21T00:18:41;3.67;;;1.92;;
48241;SDS011;34041;51.812;4.622;2023-05-21T00:21:41;3.33;;;2.20;;
48241;SDS011;34041;51.812;4.622;2023-05-21T00:24:44;3.97;;;2.67;;
48241;SDS011;34041;51.812;4.622;2023-05-21T00:27:45;5.35;;;2.58;;
48241;SDS011;34041;51.812;4.622;2023-05-21T00:30:45;4.60;;;2.33;;
48241;SDS011;34041;51.812;4.622;2023-05-21T00:33:46;4.13;;;2.47;;
48241;SDS011;34041;51.812;4.622;2023-05-21T00:36:46;6.37;;;3.10;;
48241;SDS011;34041;51.812;4.622;2023-05-21T00:39:46;3.47;;;2.30;;
48241;SDS011;34041;51.812;4.622;2023-05-21T00:42:46;5.13;;;2.60;;
48241;SDS011;34041;51.812;4.622;2023-05-21T00:45:47;3.58;;;2.55;;
48241;SDS011;34041;51.812;4.622;2023-05-21T00:48:47;3.27;;;2.50;;
48241;SDS011;34041;51.812;4.622;2023-05-21T00:51:48;8.80;;;2.70;;
48241;SDS011;34041;51.812;4.622;2023-05-21T00:54:48;3.65;;;2.40;;
48241;SDS011;34041;51.812;4.622;2023-05-21T00:57:48;3.63;;;2.05;;
48241;SDS011;34041;51.812;4.622;2023-05-21T01:00:49;4.13;;;2.60;;
48241;SDS011;34041;51.812;4.622;2023-05-21T01:03:50;4.85;;;2.08;;
48241;SDS011;34041;51.812;4.622;2023-05-21T01:06:51;5.60;;;2.42;;
48241;SDS011;34041;51.812;4.622;2023-05-21T01:09:52;3.80;;;2.38;;
48241;SDS011;34041;51.812;4.622;2023-05-21T01:12:54;4.10;;;2.35;;
48241;SDS011;34041;51.812;4.622;2023-05-21T01:15:54;3.47;;;2.20;;
48241;SDS011;34041;51.812;4.622;2023-05-21T01:18:57;4.80;;;2.53;;
48241;SDS011;34041;51.812;4.622;2023-05-21T01:22:05;2.78;;;1.77;;
48241;SDS011;34041;51.812;4.622;2023-05-21T01:25:05;4.70;;;2.55;;
48241;SDS011;34041;51.812;4.622;2023-05-21T01:28:05;3.20;;;2.15;;
48241;SDS011;34041;51.812;4.622;2023-05-21T01:31:11;4.20;;;2.72;;
48241;SDS011;34041;51.812;4.622;2023-05-21T01:34:13;5.10;;;2.50;;
48241;SDS011;34041;51.812;4.622;2023-05-21T01:37:20;5.13;;;2.70;;
48241;SDS011;34041;51.812;4.622;2023-05-21T01:40:28;4.80;;;2.75;;
48241;SDS011;34041;51.812;4.622;2023-05-21T01:43:31;3.20;;;2.38;;
48241;SDS011;34041;51.812;4.622;2023-05-21T01:46:32;4.28;;;2.13;;
48241;SDS011;34041;51.812;4.622;2023-05-21T01:49:33;3.40;;;2.25;;
48241;SDS011;34041;51.812;4.622;2023-05-21T01:52:34;3.33;;;2.03;;
48241;SDS011;34041;51.812;4.622;2023-05-21T01:55:34;3.22;;;2.30;;
48241;SDS011;34041;51.812;4.622;2023-05-21T01:58:38;3.45;;;2.05;;
48241;SDS011;34041;51.812;4.622;2023-05-21T02:01:38;3.30;;;2.47;;
48241;SDS011;34041;51.812;4.622;2023-05-21T02:04:38;2.80;;;2.20;;
48241;SDS011;34041;51.812;4.622;2023-05-21T02:07:43;3.15;;;2.20;;
48241;SDS011;34041;51.812;4.622;2023-05-21T02:10:44;3.30;;;2.05;;
48241;SDS011;34041;51.812;4.622;2023-05-21T02:13:44;6.93;;;2.92;;
48241;SDS011;34041;51.812;4.622;2023-05-21T02:16:44;3.92;;;2.70;;
48241;SDS011;34041;51.812;4.622;2023-05-21T02:19:45;2.70;;;1.90;;
48241;SDS011;34041;51.812;4.622;2023-05-21T02:22:46;3.77;;;2.83;;
48241;SDS011;34041;51.812;4.622;2023-05-21T02:25:46;3.50;;;2.28;;
48241;SDS011;34041;51.812;4.622;2023-05-21T02:28:46;3.80;;;2.80;;
48241;SDS011;34041;51.812;4.622;2023-05-21T02:31:47;3.55;;;2.58;;
48241;SDS011;34041;51.812;4.622;2023-05-21T02:34:47;2.78;;;1.85;;
48241;SDS011;34041;51.812;4.622;2023-05-21T02:37:47;3.67;;;2.37;;
48241;SDS011;34041;51.812;4.622;2023-05-21T02:40:48;4.75;;;2.90;;
48241;SDS011;34041;51.812;4.622;2023-05-21T02:43:49;4.50;;;2.78;;
48241;SDS011;34041;51.812;4.622;2023-05-21T02:46:50;3.40;;;2.22;;
48241;SDS011;34041;51.812;4.622;2023-05-21T02:49:50;3.33;;;2.85;;
48241;SDS011;34041;51.812;4.622;2023-05-21T02:52:51;5.78;;;2.78;;
48241;SDS011;34041;51.812;4.622;2023-05-21T02:55:51;4.03;;;2.58;;
48241;SDS011;34041;51.812;4.622;2023-05-21T02:58:51;3.92;;;2.92;;
48241;SDS011;34041;51.812;4.622;2023-05-21T03:01:52;3.28;;;1.92;;
48241;SDS011;34041;51.812;4.622;2023-05-21T03:04:52;3.65;;;2.63;;
48241;SDS011;34041;51.812;4.622;2023-05-21T03:07:53;3.83;;;2.08;;
48241;SDS011;34041;51.812;4.622;2023-05-21T03:10:53;4.30;;;2.27;;
48241;SDS011;34041;51.812;4.622;2023-05-21T03:13:54;5.80;;;2.30;;
48241;SDS011;34041;51.812;4.622;2023-05-21T03:16:54;4.00;;;2.95;;
48241;SDS011;34041;51.812;4.622;2023-05-21T03:19:54;3.70;;;2.40;;
48241;SDS011;34041;51.812;4.622;2023-05-21T03:22:55;4.93;;;2.83;;
48241;SDS011;34041;51.812;4.622;2023-05-21T03:25:55;4.63;;;2.60;;
48241;SDS011;34041;51.812;4.622;2023-05-21T03:28:55;3.33;;;2.70;;
48241;SDS011;34041;51.812;4.622;2023-05-21T03:31:56;3.72;;;2.80;;
48241;SDS011;34041;51.812;4.622;2023-05-21T03:34:56;4.70;;;2.80;;
48241;SDS011;34041;51.812;4.622;2023-05-21T03:37:56;3.47;;;2.20;;
48241;SDS011;34041;51.812;4.622;2023-05-21T03:40:57;4.13;;;2.93;;
48241;SDS011;34041;51.812;4.622;2023-05-21T03:43:57;5.00;;;3.30;;
48241;SDS011;34041;51.812;4.622;2023-05-21T03:46:57;3.40;;;2.60;;
48241;SDS011;34041;51.812;4.622;2023-05-21T03:49:58;3.65;;;2.90;;
48241;SDS011;34041;51.812;4.622;2023-05-21T03:52:58;3.80;;;2.53;;
48241;SDS011;34041;51.812;4.622;2023-05-21T03:55:58;5.57;;;3.08;;
48241;SDS011;34041;51.812;4.622;2023-05-21T03:58:58;4.00;;;3.13;;
48241;SDS011;34041;51.812;4.622;2023-05-21T04:01:58;6.37;;;3.40;;
48241;SDS011;34041;51.812;4.622;2023-05-21T04:04:59;4.25;;;2.95;;
48241;SDS011;34041;51.812;4.622;2023-05-21T04:07:59;4.07;;;2.85;;
48241;SDS011;34041;51.812;4.622;2023-05-21T04:10:59;4.85;;;3.08;;
48241;SDS011;34041;51.812;4.622;2023-05-21T04:14:00;3.63;;;2.90;;
48241;SDS011;34041;51.812;4.622;2023-05-21T04:17:00;4.10;;;3.25;;
48241;SDS011;34041;51.812;4.622;2023-05-21T04:20:04;4.07;;;3.00;;
48241;SDS011;34041;51.812;4.622;2023-05-21T04:23:04;4.47;;;2.83;;
48241;SDS011;34041;51.812;4.622;2023-05-21T04:26:04;5.07;;;3.57;;
48241;SDS011;34041;51.812;4.622;2023-05-21T04:29:07;4.07;;;2.95;;
48241;SDS011;34041;51.812;4.622;2023-05-21T04:32:07;4.70;;;2.85;;
48241;SDS011;34041;51.812;4.622;2023-05-21T04:35:07;4.90;;;3.03;;
48241;SDS011;34041;51.812;4.622;2023-05-21T04:38:09;4.65;;;3.33;;
48241;SDS011;34041;51.812;4.622;2023-05-21T04:41:09;4.30;;;3.70;;
48241;SDS011;34041;51.812;4.622;2023-05-21T04:44:09;4.53;;;3.30;;
48241;SDS011;34041;51.812;4.622;2023-05-21T04:47:10;5.22;;;3.30;;
48241;SDS011;34041;51.812;4.622;2023-05-21T04:50:11;4.20;;;3.28;;
48241;SDS011;34041;51.812;4.622;2023-05-21T04:53:11;4.07;;;3.00;;
48241;SDS011;34041;51.812;4.622;2023-05-21T04:56:11;5.15;;;3.15;;
48241;SDS011;34041;51.812;4.622;2023-05-21T04:59:12;3.97;;;3.13;;
48241;SDS011;34041;51.812;4.622;2023-05-21T05:02:12;5.60;;;3.20;;
48241;SDS011;34041;51.812;4.622;2023-05-21T05:05:13;6.27;;;3.53;;
48241;SDS011;34041;51.812;4.622;2023-05-21T05:08:13;4.63;;;3.03;;
48241;SDS011;34041;51.812;4.622;2023-05-21T05:11:13;5.67;;;3.53;;
48241;SDS011;34041;51.812;4.622;2023-05-21T05:14:13;4.03;;;3.30;;
48241;SDS011;34041;51.812;4.622;2023-05-21T05:17:13;4.13;;;2.80;;
48241;SDS011;34041;51.812;4.622;2023-05-21T05:20:14;4.70;;;3.30;;
48241;SDS011;34041;51.812;4.622;2023-05-21T05:23:14;4.85;;;3.45;;
48241;SDS011;34041;51.812;4.622;2023-05-21T05:26:14;5.15;;;3.60;;
48241;SDS011;34041;51.812;4.622;2023-05-21T05:29:15;3.65;;;2.78;;
48241;SDS011;34041;51.812;4.622;2023-05-21T05:32:15;4.23;;;2.93;;
48241;SDS011;34041;51.812;4.622;2023-05-21T05:35:15;5.03;;;3.80;;
48241;SDS011;34041;51.812;4.622;2023-05-21T05:38:15;9.93;;;3.93;;
48241;SDS011;34041;51.812;4.622;2023-05-21T05:41:16;5.70;;;4.10;;
48241;SDS011;34041;51.812;4.622;2023-05-21T05:44:16;6.27;;;4.67;;
48241;SDS011;34041;51.812;4.622;2023-05-21T05:47:16;7.83;;;4.10;;
48241;SDS011;34041;51.812;4.622;2023-05-21T05:50:17;5.73;;;4.10;;
48241;SDS011;34041;51.812;4.622;2023-05-21T05:53:17;8.65;;;4.85;;
48241;SDS011;34041;51.812;4.622;2023-05-21T05:56:17;7.53;;;4.47;;
48241;SDS011;34041;51.812;4.622;2023-05-21T05:59:17;6.90;;;4.80;;
48241;SDS011;34041;51.812;4.622;2023-05-21T06:02:17;5.17;;;3.93;;
48241;SDS011;34041;51.812;4.622;2023-05-21T06:05:18;6.40;;;4.30;;
48241;SDS011;34041;51.812;4.622;2023-05-21T06:08:18;9.10;;;4.40;;
48241;SDS011;34041;51.812;4.622;2023-05-21T06:11:18;6.83;;;5.40;;
48241;SDS011;34041;51.812;4.622;2023-05-21T06:14:18;7.05;;;4.35;;
48241;SDS011;34041;51.812;4.622;2023-05-21T06:17:19;5.80;;;4.20;;
48241;SDS011;34041;51.812;4.622;2023-05-21T06:20:19;4.47;;;4.00;;
48241;SDS011;34041;51.812;4.622;2023-05-21T06:23:19;7.00;;;5.00;;
48241;SDS011;34041;51.812;4.622;2023-05-21T06:26:19;6.10;;;4.53;;
48241;SDS011;34041;51.812;4.622;2023-05-21T06:29:20;7.55;;;5.85;;
48241;SDS011;34041;51.812;4.622;2023-05-21T06:32:21;7.07;;;4.88;;
48241;SDS011;34041;51.812;4.622;2023-05-21T06:35:22;6.10;;;4.70;;
48241;SDS011;34041;51.812;4.622;2023-05-21T06:38:22;5.30;;;3.92;;
48241;SDS011;34041;51.812;4.622;2023-05-21T06:41:23;7.80;;;4.50;;
48241;SDS011;34041;51.812;4.622;2023-05-21T06:44:23;6.53;;;4.68;;
48241;SDS011;34041;51.812;4.622;2023-05-21T06:47:23;7.27;;;5.30;;
48241;SDS011;34041;51.812;4.622;2023-05-21T06:50:23;6.40;;;4.53;;
48241;SDS011;34041;51.812;4.622;2023-05-21T06:53:23;9.93;;;5.77;;
48241;SDS011;34041;51.812;4.622;2023-05-21T06:56:24;6.07;;;5.33;;
48241;SDS011;34041;51.812;4.622;2023-05-21T06:59:25;6.82;;;5.45;;
48241;SDS011;34041;51.812;4.622;2023-05-21T07:02:25;9.07;;;5.25;;
48241;SDS011;34041;51.812;4.622;2023-05-21T07:05:25;6.83;;;5.27;;
48241;SDS011;34041;51.812;4.622;2023-05-21T07:08:26;9.30;;;5.50;;
48241;SDS011;34041;51.812;4.622;2023-05-21T07:11:26;6.20;;;5.60;;
48241;SDS011;34041;51.812;4.622;2023-05-21T07:14:27;7.82;;;4.85;;
48241;SDS011;34041;51.812;4.622;2023-05-21T07:17:28;7.90;;;5.18;;
48241;SDS011;34041;51.812;4.622;2023-05-21T07:20:28;8.43;;;5.07;;
48241;SDS011;34041;51.812;4.622;2023-05-21T07:23:28;8.48;;;5.90;;
48241;SDS011;34041;51.812;4.622;2023-05-21T07:26:28;6.87;;;5.33;;
48241;SDS011;34041;51.812;4.622;2023-05-21T07:29:29;9.07;;;5.57;;
48241;SDS011;34041;51.812;4.622;2023-05-21T07:32:29;7.88;;;5.90;;
48241;SDS011;34041;51.812;4.622;2023-05-21T07:35:29;7.55;;;6.75;;
48241;SDS011;34041;51.812;4.622;2023-05-21T07:38:30;9.77;;;6.00;;
48241;SDS011;34041;51.812;4.622;2023-05-21T07:41:30;6.97;;;6.28;;
48241;SDS011;34041;51.812;4.622;2023-05-21T07:44:31;10.70;;;6.55;;
48241;SDS011;34041;51.812;4.622;2023-05-21T07:47:31;8.07;;;5.82;;
48241;SDS011;34041;51.812;4.622;2023-05-21T07:50:32;7.10;;;5.67;;
48241;SDS011;34041;51.812;4.622;2023-05-21T07:53:32;7.60;;;5.60;;
48241;SDS011;34041;51.812;4.622;2023-05-21T07:56:32;8.68;;;5.93;;
48241;SDS011;34041;51.812;4.622;2023-05-21T07:59:32;8.87;;;7.00;;
48241;SDS011;34041;51.812;4.622;2023-05-21T08:02:33;7.25;;;6.53;;
48241;SDS011;34041;51.812;4.622;2023-05-21T08:05:33;6.87;;;5.80;;
48241;SDS011;34041;51.812;4.622;2023-05-21T08:08:33;8.03;;;6.27;;
48241;SDS011;34041;51.812;4.622;2023-05-21T08:11:33;6.40;;;5.63;;
48241;SDS011;34041;51.812;4.622;2023-05-21T08:14:33;7.80;;;6.23;;
48241;SDS011;34041;51.812;4.622;2023-05-21T08:17:34;10.80;;;6.70;;
48241;SDS011;34041;51.812;4.622;2023-05-21T08:20:34;6.32;;;5.43;;
48241;SDS011;34041;51.812;4.622;2023-05-21T08:23:34;9.60;;;6.70;;
48241;SDS011;34041;51.812;4.622;2023-05-21T08:26:35;8.00;;;6.18;;
48241;SDS011;34041;51.812;4.622;2023-05-21T08:29:35;8.85;;;6.60;;
48241;SDS011;34041;51.812;4.622;2023-05-21T08:32:36;7.47;;;5.68;;
48241;SDS011;34041;51.812;4.622;2023-05-21T08:35:36;7.47;;;5.90;;
48241;SDS011;34041;51.812;4.622;2023-05-21T08:38:36;7.73;;;5.73;;
48241;SDS011;34041;51.812;4.622;2023-05-21T08:41:36;8.80;;;6.00;;
48241;SDS011;34041;51.812;4.622;2023-05-21T08:44:37;7.72;;;6.75;;
48241;SDS011;34041;51.812;4.622;2023-05-21T08:47:43;8.00;;;6.57;;
48241;SDS011;34041;51.812;4.622;2023-05-21T08:50:43;7.55;;;5.85;;
48241;SDS011;34041;51.812;4.622;2023-05-21T08:53:44;8.68;;;6.40;;
48241;SDS011;34041;51.812;4.622;2023-05-21T08:56:44;10.98;;;6.70;;
48241;SDS011;34041;51.812;4.622;2023-05-21T08:59:48;7.78;;;5.88;;
48241;SDS011;34041;51.812;4.622;2023-05-21T09:02:49;11.98;;;6.40;;
48241;SDS011;34041;51.812;4.622;2023-05-21T09:05:50;10.50;;;6.97;;
48241;SDS011;34041;51.812;4.622;2023-05-21T09:08:58;9.65;;;6.40;;
48241;SDS011;34041;51.812;4.622;2023-05-21T09:12:01;8.32;;;6.22;;
48241;SDS011;34041;51.812;4.622;2023-05-21T09:15:02;6.70;;;5.90;;
48241;SDS011;34041;51.812;4.622;2023-05-21T09:18:02;9.02;;;7.00;;
48241;SDS011;34041;51.812;4.622;2023-05-21T09:24:21;8.48;;;6.30;;
48241;SDS011;34041;51.812;4.622;2023-05-21T09:27:21;6.22;;;5.50;;
48241;SDS011;34041;51.812;4.622;2023-05-21T09:30:22;7.07;;;6.23;;
48241;SDS011;34041;51.812;4.622;2023-05-21T09:33:25;7.88;;;6.28;;
48241;SDS011;34041;51.812;4.622;2023-05-21T09:36:26;10.20;;;6.28;;
48241;SDS011;34041;51.812;4.622;2023-05-21T09:39:28;8.73;;;5.88;;
48241;SDS011;34041;51.812;4.622;2023-05-21T09:42:31;7.82;;;7.03;;
48241;SDS011;34041;51.812;4.622;2023-05-21T09:45:32;8.65;;;7.38;;
48241;SDS011;34041;51.812;4.622;2023-05-21T09:48:33;8.13;;;6.38;;
48241;SDS011;34041;51.812;4.622;2023-05-21T09:51:37;9.45;;;6.25;;
48241;SDS011;34041;51.812;4.622;2023-05-21T09:54:37;6.93;;;5.97;;
48241;SDS011;34041;51.812;4.622;2023-05-21T09:57:44;9.75;;;6.78;;
48241;SDS011;34041;51.812;4.622;2023-05-21T10:00:45;9.23;;;7.15;;
48241;SDS011;34041;51.812;4.622;2023-05-21T10:03:46;8.45;;;6.07;;
48241;SDS011;34041;51.812;4.622;2023-05-21T10:06:46;10.75;;;6.90;;
48241;SDS011;34041;51.812;4.622;2023-05-21T10:09:48;14.20;;;7.05;;
48241;SDS011;34041;51.812;4.622;2023-05-21T10:16:00;7.15;;;5.60;;
48241;SDS011;34041;51.812;4.622;2023-05-21T10:19:01;7.47;;;6.57;;
48241;SDS011;34041;51.812;4.622;2023-05-21T10:22:02;10.40;;;6.28;;
48241;SDS011;34041;51.812;4.622;2023-05-21T10:25:03;8.07;;;5.93;;
48241;SDS011;34041;51.812;4.622;2023-05-21T10:28:04;10.80;;;6.07;;
48241;SDS011;34041;51.812;4.622;2023-05-21T10:31:05;6.65;;;6.00;;
48241;SDS011;34041;51.812;4.622;2023-05-21T10:34:06;7.90;;;6.07;;
48241;SDS011;34041;51.812;4.622;2023-05-21T10:37:07;11.50;;;6.80;;
48241;SDS011;34041;51.812;4.622;2023-05-21T10:40:08;10.80;;;6.80;;
48241;SDS011;34041;51.812;4.622;2023-05-21T10:46:48;10.75;;;6.50;;
48241;SDS011;34041;51.812;4.622;2023-05-21T10:56:31;7.35;;;6.43;;
48241;SDS011;34041;51.812;4.622;2023-05-21T11:02:35;9.13;;;6.60;;
48241;SDS011;34041;51.812;4.622;2023-05-21T11:08:40;8.00;;;5.85;;
48241;SDS011;34041;51.812;4.622;2023-05-21T11:14:56;7.97;;;7.18;;
48241;SDS011;34041;51.812;4.622;2023-05-21T11:17:56;9.15;;;7.15;;
48241;SDS011;34041;51.812;4.622;2023-05-21T11:21:07;7.60;;;6.10;;
48241;SDS011;34041;51.812;4.622;2023-05-21T11:24:08;8.85;;;6.55;;
48241;SDS011;34041;51.812;4.622;2023-05-21T11:27:09;6.07;;;5.47;;
48241;SDS011;34041;51.812;4.622;2023-05-21T11:30:16;6.85;;;5.80;;
48241;SDS011;34041;51.812;4.622;2023-05-21T11:33:17;6.65;;;5.85;;
48241;SDS011;34041;51.812;4.622;2023-05-21T11:36:17;6.75;;;5.90;;
48241;SDS011;34041;51.812;4.622;2023-05-21T11:39:18;7.87;;;6.57;;
48241;SDS011;34041;51.812;4.622;2023-05-21T11:42:28;8.53;;;5.57;;
48241;SDS011;34041;51.812;4.622;2023-05-21T11:45:29;9.05;;;6.60;;
48241;SDS011;34041;51.812;4.622;2023-05-21T11:48:30;8.63;;;6.03;;
48241;SDS011;34041;51.812;4.622;2023-05-21T11:51:31;7.65;;;6.53;;
48241;SDS011;34041;51.812;4.622;2023-05-21T11:54:32;8.18;;;6.47;;
48241;SDS011;34041;51.812;4.622;2023-05-21T11:57:36;8.38;;;5.78;;
48241;SDS011;34041;51.812;4.622;2023-05-21T12:00:39;7.82;;;6.43;;
48241;SDS011;34041;51.812;4.622;2023-05-21T12:03:40;9.30;;;6.45;;
48241;SDS011;34041;51.812;4.622;2023-05-21T12:06:43;8.77;;;6.20;;
48241;SDS011;34041;51.812;4.622;2023-05-21T12:09:44;7.50;;;5.80;;
48241;SDS011;34041;51.812;4.622;2023-05-21T12:12:44;8.20;;;6.90;;
48241;SDS011;34041;51.812;4.622;2023-05-21T12:15:45;10.30;;;6.63;;
48241;SDS011;34041;51.812;4.622;2023-05-21T12:18:45;9.68;;;6.68;;
48241;SDS011;34041;51.812;4.622;2023-05-21T12:21:45;7.17;;;5.87;;
48241;SDS011;34041;51.812;4.622;2023-05-21T12:24:46;7.07;;;6.22;;
48241;SDS011;34041;51.812;4.622;2023-05-21T12:27:47;7.65;;;6.03;;
48241;SDS011;34041;51.812;4.622;2023-05-21T12:30:49;10.50;;;7.20;;
48241;SDS011;34041;51.812;4.622;2023-05-21T12:33:50;8.20;;;6.43;;
48241;SDS011;34041;51.812;4.622;2023-05-21T12:36:50;6.22;;;5.20;;
48241;SDS011;34041;51.812;4.622;2023-05-21T12:39:51;8.73;;;6.30;;
48241;SDS011;34041;51.812;4.622;2023-05-21T12:42:52;8.82;;;6.38;;
48241;SDS011;34041;51.812;4.622;2023-05-21T12:45:52;8.50;;;6.00;;
48241;SDS011;34041;51.812;4.622;2023-05-21T12:48:52;7.67;;;5.80;;
48241;SDS011;34041;51.812;4.622;2023-05-21T12:51:55;9.20;;;6.10;;
48241;SDS011;34041;51.812;4.622;2023-05-21T12:54:56;15.38;;;7.07;;
48241;SDS011;34041;51.812;4.622;2023-05-21T12:58:00;8.43;;;6.45;;
48241;SDS011;34041;51.812;4.622;2023-05-21T13:01:01;8.30;;;6.40;;
48241;SDS011;34041;51.812;4.622;2023-05-21T13:04:03;7.73;;;6.87;;
48241;SDS011;34041;51.812;4.622;2023-05-21T13:07:03;8.85;;;6.68;;
48241;SDS011;34041;51.812;4.622;2023-05-21T13:10:04;9.15;;;6.28;;
48241;SDS011;34041;51.812;4.622;2023-05-21T13:13:04;10.93;;;6.45;;
48241;SDS011;34041;51.812;4.622;2023-05-21T13:16:04;13.37;;;6.70;;
48241;SDS011;34041;51.812;4.622;2023-05-21T13:19:05;8.93;;;7.00;;
48241;SDS011;34041;51.812;4.622;2023-05-21T13:22:05;7.65;;;6.53;;
48241;SDS011;34041;51.812;4.622;2023-05-21T13:25:06;9.13;;;6.65;;
48241;SDS011;34041;51.812;4.622;2023-05-21T13:28:07;8.68;;;6.90;;
48241;SDS011;34041;51.812;4.622;2023-05-21T13:31:09;10.43;;;8.05;;
48241;SDS011;34041;51.812;4.622;2023-05-21T13:34:11;9.32;;;6.95;;
48241;SDS011;34041;51.812;4.622;2023-05-21T13:37:11;9.18;;;8.05;;
48241;SDS011;34041;51.812;4.622;2023-05-21T13:40:12;7.93;;;6.67;;
48241;SDS011;34041;51.812;4.622;2023-05-21T13:43:15;10.53;;;7.20;;
48241;SDS011;34041;51.812;4.622;2023-05-21T13:46:15;11.50;;;8.03;;
48241;SDS011;34041;51.812;4.622;2023-05-21T13:49:16;8.20;;;7.07;;
48241;SDS011;34041;51.812;4.622;2023-05-21T13:52:16;12.38;;;7.47;;
48241;SDS011;34041;51.812;4.622;2023-05-21T13:55:16;9.85;;;6.35;;
48241;SDS011;34041;51.812;4.622;2023-05-21T13:58:17;9.93;;;7.68;;
48241;SDS011;34041;51.812;4.622;2023-05-21T14:01:18;10.93;;;7.93;;
48241;SDS011;34041;51.812;4.622;2023-05-21T14:04:18;8.63;;;7.07;;
48241;SDS011;34041;51.812;4.622;2023-05-21T14:07:18;8.88;;;6.63;;
48241;SDS011;34041;51.812;4.622;2023-05-21T14:10:18;8.23;;;6.68;;
48241;SDS011;34041;51.812;4.622;2023-05-21T14:13:19;8.02;;;7.20;;
48241;SDS011;34041;51.812;4.622;2023-05-21T14:16:19;9.05;;;6.68;;
48241;SDS011;34041;51.812;4.622;2023-05-21T14:19:23;10.23;;;7.70;;
48241;SDS011;34041;51.812;4.622;2023-05-21T14:22:23;10.03;;;7.93;;
48241;SDS011;34041;51.812;4.622;2023-05-21T14:25:24;9.68;;;7.03;;
48241;SDS011;34041;51.812;4.622;2023-05-21T14:28:24;9.30;;;7.00;;
48241;SDS011;34041;51.812;4.622;2023-05-21T14:31:24;7.93;;;7.13;;
48241;SDS011;34041;51.812;4.622;2023-05-21T14:34:24;8.45;;;7.35;;
48241;SDS011;34041;51.812;4.622;2023-05-21T14:37:25;8.27;;;7.07;;
48241;SDS011;34041;51.812;4.622;2023-05-21T14:40:25;8.87;;;6.67;;
48241;SDS011;34041;51.812;4.622;2023-05-21T14:43:25;7.95;;;6.88;;
48241;SDS011;34041;51.812;4.622;2023-05-21T14:46:25;10.33;;;8.00;;
48241;SDS011;34041;51.812;4.622;2023-05-21T14:49:26;12.77;;;7.23;;
48241;SDS011;34041;51.812;4.622;2023-05-21T14:52:26;7.88;;;6.28;;
48241;SDS011;34041;51.812;4.622;2023-05-21T14:55:26;7.97;;;6.88;;
48241;SDS011;34041;51.812;4.622;2023-05-21T14:58:27;10.55;;;7.93;;
48241;SDS011;34041;51.812;4.622;2023-05-21T15:01:27;14.63;;;7.50;;
48241;SDS011;34041;51.812;4.622;2023-05-21T15:04:27;9.43;;;7.63;;
48241;SDS011;34041;51.812;4.622;2023-05-21T15:07:28;9.97;;;7.43;;
48241;SDS011;34041;51.812;4.622;2023-05-21T15:10:28;8.82;;;7.47;;
48241;SDS011;34041;51.812;4.622;2023-05-21T15:13:28;12.48;;;7.55;;
48241;SDS011;34041;51.812;4.622;2023-05-21T15:16:28;9.93;;;8.20;;
48241;SDS011;34041;51.812;4.622;2023-05-21T15:19:29;8.93;;;7.60;;
48241;SDS011;34041;51.812;4.622;2023-05-21T15:22:29;9.83;;;8.17;;
48241;SDS011;34041;51.812;4.622;2023-05-21T15:25:29;9.73;;;7.53;;
48241;SDS011;34041;51.812;4.622;2023-05-21T15:28:30;8.60;;;7.63;;
48241;SDS011;34041;51.812;4.622;2023-05-21T15:31:30;8.63;;;7.73;;
48241;SDS011;34041;51.812;4.622;2023-05-21T15:34:30;12.68;;;7.60;;
48241;SDS011;34041;51.812;4.622;2023-05-21T15:37:31;9.65;;;6.78;;
48241;SDS011;34041;51.812;4.622;2023-05-21T15:40:32;18.42;;;7.88;;
48241;SDS011;34041;51.812;4.622;2023-05-21T15:43:32;8.57;;;6.68;;
48241;SDS011;34041;51.812;4.622;2023-05-21T15:46:32;8.77;;;6.53;;
48241;SDS011;34041;51.812;4.622;2023-05-21T15:49:32;10.87;;;7.53;;
48241;SDS011;34041;51.812;4.622;2023-05-21T15:52:33;10.45;;;7.15;;
48241;SDS011;34041;51.812;4.622;2023-05-21T15:55:33;10.30;;;7.53;;
48241;SDS011;34041;51.812;4.622;2023-05-21T15:58:33;9.80;;;7.13;;
48241;SDS011;34041;51.812;4.622;2023-05-21T16:01:33;10.70;;;7.47;;
48241;SDS011;34041;51.812;4.622;2023-05-21T16:04:34;9.70;;;7.05;;
48241;SDS011;34041;51.812;4.622;2023-05-21T16:07:34;8.53;;;7.10;;
48241;SDS011;34041;51.812;4.622;2023-05-21T16:10:34;7.50;;;6.45;;
48241;SDS011;34041;51.812;4.622;2023-05-21T16:13:34;10.40;;;8.07;;
48241;SDS011;34041;51.812;4.622;2023-05-21T16:16:35;10.50;;;7.03;;
48241;SDS011;34041;51.812;4.622;2023-05-21T16:19:35;15.40;;;7.28;;
48241;SDS011;34041;51.812;4.622;2023-05-21T16:22:35;7.87;;;6.50;;
48241;SDS011;34041;51.812;4.622;2023-05-21T16:25:35;10.90;;;7.53;;
48241;SDS011;34041;51.812;4.622;2023-05-21T16:28:36;10.73;;;7.93;;
48241;SDS011;34041;51.812;4.622;2023-05-21T16:31:36;10.82;;;8.40;;
48241;SDS011;34041;51.812;4.622;2023-05-21T16:34:37;16.50;;;8.20;;
48241;SDS011;34041;51.812;4.622;2023-05-21T16:37:37;9.05;;;6.85;;
48241;SDS011;34041;51.812;4.622;2023-05-21T16:40:37;8.47;;;6.10;;
48241;SDS011;34041;51.812;4.622;2023-05-21T16:43:39;8.60;;;6.82;;
48241;SDS011;34041;51.812;4.622;2023-05-21T16:46:41;10.88;;;8.35;;
48241;SDS011;34041;51.812;4.622;2023-05-21T16:49:41;8.32;;;6.35;;
48241;SDS011;34041;51.812;4.622;2023-05-21T16:52:41;9.83;;;7.17;;
48241;SDS011;34041;51.812;4.622;2023-05-21T16:55:42;10.18;;;6.70;;
48241;SDS011;34041;51.812;4.622;2023-05-21T16:58:42;10.82;;;7.40;;
48241;SDS011;34041;51.812;4.622;2023-05-21T17:01:42;15.53;;;8.00;;
48241;SDS011;34041;51.812;4.622;2023-05-21T17:04:42;10.48;;;7.10;;
48241;SDS011;34041;51.812;4.622;2023-05-21T17:07:43;9.60;;;7.13;;
48241;SDS011;34041;51.812;4.622;2023-05-21T17:10:43;10.23;;;7.70;;
48241;SDS011;34041;51.812;4.622;2023-05-21T17:13:43;8.07;;;7.07;;
48241;SDS011;34041;51.812;4.622;2023-05-21T17:16:47;11.38;;;7.35;;
48241;SDS011;34041;51.812;4.622;2023-05-21T17:19:47;12.63;;;7.33;;
48241;SDS011;34041;51.812;4.622;2023-05-21T17:22:47;11.53;;;7.00;;
48241;SDS011;34041;51.812;4.622;2023-05-21T17:25:47;12.97;;;7.63;;
48241;SDS011;34041;51.812;4.622;2023-05-21T17:28:47;11.37;;;8.13;;
48241;SDS011;34041;51.812;4.622;2023-05-21T17:31:48;7.57;;;6.77;;
48241;SDS011;34041;51.812;4.622;2023-05-21T17:34:48;10.27;;;7.33;;
48241;SDS011;34041;51.812;4.622;2023-05-21T17:37:48;11.47;;;7.37;;
48241;SDS011;34041;51.812;4.622;2023-05-21T17:40:48;10.80;;;7.30;;
48241;SDS011;34041;51.812;4.622;2023-05-21T17:43:49;10.23;;;6.80;;
48241;SDS011;34041;51.812;4.622;2023-05-21T17:46:49;10.23;;;7.75;;
48241;SDS011;34041;51.812;4.622;2023-05-21T17:49:50;11.13;;;7.05;;
48241;SDS011;34041;51.812;4.622;2023-05-21T17:52:50;12.87;;;8.23;;
48241;SDS011;34041;51.812;4.622;2023-05-21T17:55:51;15.67;;;7.77;;
48241;SDS011;34041;51.812;4.622;2023-05-21T17:58:51;10.07;;;7.43;;
48241;SDS011;34041;51.812;4.622;2023-05-21T18:01:51;12.13;;;6.90;;
48241;SDS011;34041;51.812;4.622;2023-05-21T18:04:51;11.10;;;8.57;;
48241;SDS011;34041;51.812;4.622;2023-05-21T18:07:52;8.93;;;7.07;;
48241;SDS011;34041;51.812;4.622;2023-05-21T18:10:52;12.37;;;6.57;;
48241;SDS011;34041;51.812;4.622;2023-05-21T18:13:52;9.13;;;5.97;;
48241;SDS011;34041;51.812;4.622;2023-05-21T18:16:53;10.52;;;5.47;;
48241;SDS011;34041;51.812;4.622;2023-05-21T18:19:53;9.05;;;5.65;;
48241;SDS011;34041;51.812;4.622;2023-05-21T18:22:54;16.08;;;6.45;;
48241;SDS011;34041;51.812;4.622;2023-05-21T18:25:54;11.48;;;5.88;;
48241;SDS011;34041;51.812;4.622;2023-05-21T18:28:57;7.17;;;3.93;;
48241;SDS011;34041;51.812;4.622;2023-05-21T18:31:57;11.70;;;4.65;;